Time;durP1;ratioP1;P1;durP2;ratioP2;P2;SDS_P1;SDS_P2;PMS_P1;PMS_P2;Temp;Humidity;BMP_temperature;BMP_pressure;BME280_temperature;BME280_humidity;BME280_pressure;Samples;Min_cycle;Max_cycle;Signal;HPM_P1;HPM_P2
2023/12/25 00:03:17;;;;;;;2.00;1.73;;;;;;;16.11;42.67;98420.25;6971049;28;20712;-77
2023/12/25 00:06:38;;;;;;;1.40;1.40;;;;;;;15.57;43.89;98431.88;6971512;28;20811;-78
2023/12/25 00:10:00;;;;;;;1.77;1.40;;;;;;;15.63;43.32;98414.59;6962801;28;20221;-78
2023/12/25 00:13:21;;;;;;;1.70;1.60;;;;;;;15.35;43.94;98412.78;6943209;28;20268;-78
2023/12/25 00:16:44;;;;;;;1.70;1.60;;;;;;;15.86;43.00;98415.25;6943331;28;20207;-77
2023/12/25 00:20:07;;;;;;;1.77;1.67;;;;;;;15.83;43.02;98420.34;6942715;28;20212;-78
2023/12/25 00:23:29;;;;;;;2.40;1.67;;;;;;;15.86;42.86;98412.53;6943586;28;20261;-77
2023/12/25 00:26:50;;;;;;;3.00;1.70;;;;;;;15.02;44.64;98414.53;6949375;28;20657;-78
2023/12/25 00:30:12;;;;;;;2.13;1.80;;;;;;;15.56;43.11;98412.03;6967947;28;20694;-79
2023/12/25 00:33:35;;;;;;;3.47;1.70;;;;;;;15.26;43.49;98416.06;6969857;28;20220;-78
2023/12/25 00:36:56;;;;;;;1.67;1.57;;;;;;;15.64;42.92;98418.97;6970372;28;20211;-78
2023/12/25 00:40:18;;;;;;;1.70;1.60;;;;;;;15.70;42.65;98420.69;6963563;28;20348;-78
2023/12/25 00:43:39;;;;;;;1.80;1.70;;;;;;;15.42;42.83;98415.31;6967899;28;20384;-77
2023/12/25 00:47:01;;;;;;;3.87;1.67;;;;;;;15.52;42.84;98418.22;6942791;28;20337;-77
2023/12/25 00:50:24;;;;;;;1.63;1.53;;;;;;;15.53;42.69;98428.84;6941729;28;20225;-77
2023/12/25 00:53:45;;;;;;;2.70;1.90;;;;;;;15.26;42.94;98414.19;6943006;28;20378;-77
2023/12/25 00:57:07;;;;;;;1.70;1.60;;;;;;;15.31;42.50;98402.59;6941751;28;20365;-77
2023/12/25 01:00:28;;;;;;;1.77;1.70;;;;;;;15.15;42.99;98396.06;6942551;28;20208;-78
2023/12/25 01:03:50;;;;;;;1.70;1.60;;;;;;;15.33;42.85;98403.22;6939672;28;20314;-78
2023/12/25 01:07:13;;;;;;;1.87;1.77;;;;;;;15.05;43.15;98392.34;6939634;28;20684;-77
2023/12/25 01:10:34;;;;;;;1.80;1.70;;;;;;;15.58;41.97;98403.66;6939249;28;20327;-77
2023/12/25 01:13:56;;;;;;;1.87;1.70;;;;;;;15.19;42.39;98399.09;6940130;28;20807;-78
2023/12/25 01:17:17;;;;;;;1.60;1.50;;;;;;;15.25;42.45;98382.66;6940927;28;20212;-78
2023/12/25 01:20:40;;;;;;;1.50;1.50;;;;;;;15.44;42.31;98410.44;6941842;28;20207;-77
2023/12/25 01:24:03;;;;;;;2.10;1.90;;;;;;;15.55;41.60;98406.84;6941728;28;20734;-77
2023/12/25 01:27:24;;;;;;;1.53;1.43;;;;;;;15.08;42.47;98408.13;6941423;28;20257;-78
2023/12/25 01:30:46;;;;;;;1.70;1.50;;;;;;;15.30;41.79;98384.66;6940848;28;20227;-77
2023/12/25 01:34:07;;;;;;;1.77;1.70;;;;;;;14.95;42.44;98400.28;6941536;28;20637;-79
2023/12/25 01:37:29;;;;;;;1.63;1.40;;;;;;;15.07;42.39;98406.50;6941433;28;20320;-78
2023/12/25 01:40:52;;;;;;;1.40;1.40;;;;;;;15.19;42.05;98405.38;6941862;28;20260;-77
2023/12/25 01:44:13;;;;;;;2.37;1.63;;;;;;;15.43;41.40;98411.53;6941394;28;20314;-78
2023/12/25 01:47:34;;;;;;;1.87;1.50;;;;;;;15.48;41.32;98401.59;6940400;28;20742;-78
2023/12/25 01:51:00;;;;;;;1.60;1.50;;;;;;;15.23;41.78;98400.28;6940764;28;20323;-77
2023/12/25 01:54:22;;;;;;;1.80;1.70;;;;;;;15.03;42.18;98403.44;6940883;28;20197;-77
2023/12/25 01:57:45;;;;;;;2.30;1.80;;;;;;;15.27;41.45;98377.81;6941107;28;20284;-77
2023/12/25 02:01:06;;;;;;;1.60;1.53;;;;;;;15.08;41.52;98384.53;6940621;28;20296;-78
2023/12/25 02:04:28;;;;;;;1.63;1.53;;;;;;;15.07;41.44;98377.47;6939651;28;20214;-78
2023/12/25 02:07:50;;;;;;;2.60;1.60;;;;;;;14.76;42.16;98396.13;6941091;28;20208;-77
2023/12/25 02:11:12;;;;;;;1.70;1.60;;;;;;;14.71;42.38;98405.00;6941233;28;20293;-78
2023/12/25 02:14:35;;;;;;;2.37;1.80;;;;;;;14.95;41.97;98408.44;6941273;28;20423;-77
2023/12/25 02:17:56;;;;;;;3.40;1.70;;;;;;;15.07;41.07;98401.06;6941034;28;20305;-78
2023/12/25 02:21:18;;;;;;;1.97;1.67;;;;;;;15.32;40.97;98405.09;6940578;28;20252;-77
2023/12/25 02:24:42;;;;;;;2.07;1.93;;;;;;;14.75;42.03;98414.28;6940071;28;20671;-78
2023/12/25 02:28:06;;;;;;;4.40;1.83;;;;;;;14.65;41.89;98413.25;6941046;28;20215;-77
2023/12/25 02:31:27;;;;;;;1.83;1.73;;;;;;;14.85;41.35;98416.38;6940924;28;20669;-78
2023/12/25 02:34:49;;;;;;;1.60;1.37;;;;;;;15.05;41.40;98423.00;6940982;28;20438;-77
2023/12/25 02:38:10;;;;;;;1.40;1.40;;;;;;;15.17;41.06;98409.41;6940621;28;20211;-77
2023/12/25 02:41:32;;;;;;;1.50;1.40;;;;;;;14.68;41.66;98429.88;6939141;28;20576;-77
2023/12/25 02:44:55;;;;;;;1.50;1.40;;;;;;;15.12;41.51;98403.88;6940652;28;20298;-79
2023/12/25 02:48:16;;;;;;;2.00;1.70;;;;;;;15.04;41.02;98410.50;6967813;28;20613;-78
2023/12/25 02:51:38;;;;;;;1.80;1.70;;;;;;;15.13;41.06;98395.50;6966765;28;20353;-77
2023/12/25 02:54:59;;;;;;;1.87;1.43;;;;;;;15.06;40.98;98411.13;6967216;28;20276;-78
2023/12/25 02:58:20;;;;;;;1.70;1.60;;;;;;;14.98;41.03;98407.97;6967054;28;20336;-77
2023/12/25 03:01:43;;;;;;;3.50;1.60;;;;;;;15.07;40.99;98404.59;6967295;28;20739;-77
2023/12/25 03:05:06;;;;;;;2.40;1.80;;;;;;;15.34;40.00;98407.56;6967366;28;20289;-77
2023/12/25 03:08:27;;;;;;;2.20;1.60;;;;;;;15.50;39.88;98382.28;6966429;28;20736;-77
2023/12/25 03:11:49;;;;;;;2.50;1.80;;;;;;;15.11;40.03;98388.66;6970510;28;20279;-78
2023/12/25 03:15:10;;;;;;;1.50;1.50;;;;;;;15.45;39.44;98365.94;6973051;28;20340;-77
2023/12/25 03:18:33;;;;;;;1.63;1.53;;;;;;;15.00;40.22;98386.81;6972928;28;20367;-77
2023/12/25 03:21:54;;;;;;;1.70;1.60;;;;;;;15.30;39.43;98381.94;6972677;28;20269;-77
2023/12/25 03:25:16;;;;;;;1.57;1.47;;;;;;;15.45;38.86;98393.09;6972289;28;20253;-77
2023/12/25 03:28:38;;;;;;;1.83;1.73;;;;;;;15.20;39.89;98381.75;6971556;28;20213;-77
2023/12/25 03:31:59;;;;;;;1.77;1.67;;;;;;;15.09;39.84;98388.88;6972460;28;20304;-77
2023/12/25 03:35:22;;;;;;;1.47;1.47;;;;;;;15.22;39.59;98376.91;6972228;28;20254;-77
2023/12/25 03:38:43;;;;;;;2.00;1.70;;;;;;;15.12;39.53;98391.13;6972003;28;20217;-77
2023/12/25 03:42:05;;;;;;;1.77;1.50;;;;;;;15.11;39.76;98400.31;6971897;28;20644;-77
2023/12/25 03:45:27;;;;;;;1.60;1.50;;;;;;;15.05;39.54;98395.88;6971024;28;20232;-77
2023/12/25 03:48:50;;;;;;;2.13;1.70;;;;;;;15.12;39.30;98385.69;6971777;28;20207;-77
2023/12/25 03:52:13;;;;;;;1.60;1.50;;;;;;;15.23;39.16;98406.50;6972104;28;20223;-78
2023/12/25 03:55:36;;;;;;;2.10;1.90;;;;;;;15.24;39.10;98400.03;6971568;28;20218;-77
2023/12/25 03:58:57;;;;;;;1.60;1.50;;;;;;;15.48;38.66;98396.16;6971329;28;20366;-77
2023/12/25 04:02:19;;;;;;;2.33;1.60;;;;;;;15.38;38.84;98406.00;6971659;28;20223;-77
2023/12/25 04:05:40;;;;;;;1.70;1.60;;;;;;;15.54;38.67;98400.59;6970682;28;20202;-78
2023/12/25 04:09:03;;;;;;;1.70;1.60;;;;;;;15.42;38.80;98399.00;6971495;28;20272;-77
2023/12/25 04:12:25;;;;;;;1.67;1.57;;;;;;;15.19;39.08;98385.53;6971556;28;20265;-78
2023/12/25 04:15:47;;;;;;;2.80;1.80;;;;;;;15.30;38.99;98403.66;6971470;28;20722;-78
2023/12/25 04:19:08;;;;;;;1.70;1.60;;;;;;;15.25;39.15;98404.41;6971326;28;20253;-77
2023/12/25 04:22:29;;;;;;;1.60;1.50;;;;;;;15.38;38.97;98386.97;6968783;28;20323;-77
2023/12/25 04:25:52;;;;;;;1.63;1.60;;;;;;;15.38;38.76;98404.13;6970961;28;20720;-78
2023/12/25 04:29:14;;;;;;;2.43;2.23;;;;;;;15.24;38.95;98401.91;6970632;28;20208;-77
2023/12/25 04:32:35;;;;;;;1.80;1.70;;;;;;;15.21;38.91;98411.38;6971010;28;20367;-78
2023/12/25 04:35:57;;;;;;;1.70;1.60;;;;;;;15.24;39.03;98407.34;6970920;28;20544;-78
2023/12/25 04:39:18;;;;;;;2.77;1.47;;;;;;;15.03;39.23;98422.44;6970917;28;20306;-77
2023/12/25 04:42:41;;;;;;;1.60;1.50;;;;;;;15.03;39.34;98422.44;6970712;28;20317;-78
2023/12/25 04:46:03;;;;;;;2.00;1.47;;;;;;;15.56;38.70;98428.34;6969797;28;20215;-78
2023/12/25 04:49:24;;;;;;;1.40;1.30;;;;;;;15.40;38.58;98417.47;6970359;28;20320;-78
2023/12/25 04:52:46;;;;;;;1.40;1.37;;;;;;;15.65;38.53;98424.16;6970395;28;20232;-78
2023/12/25 04:56:09;;;;;;;1.60;1.50;;;;;;;15.32;38.71;98402.38;6970097;28;20221;-79
2023/12/25 04:59:32;;;;;;;1.60;1.50;;;;;;;15.29;38.46;98407.44;6970184;28;20779;-77
2023/12/25 05:02:54;;;;;;;1.70;1.60;;;;;;;15.28;38.34;98405.81;6969542;28;20227;-78
2023/12/25 05:06:15;;;;;;;1.80;1.70;;;;;;;15.16;39.01;98413.19;6969142;28;20299;-78
2023/12/25 05:09:37;;;;;;;1.80;1.70;;;;;;;15.56;38.55;98409.31;6969248;28;20228;-78
2023/12/25 05:12:58;;;;;;;1.47;1.47;;;;;;;15.39;38.69;98416.63;6969553;28;20310;-77
2023/12/25 05:16:21;;;;;;;1.60;1.50;;;;;;;15.07;38.76;98401.06;6968665;28;20212;-77
2023/12/25 05:19:43;;;;;;;1.63;1.53;;;;;;;15.27;38.35;98410.41;6966387;28;20217;-77
2023/12/25 05:23:04;;;;;;;1.60;1.50;;;;;;;15.46;37.83;98381.16;6941095;28;20672;-77
2023/12/25 05:26:27;;;;;;;1.60;1.50;;;;;;;15.41;37.77;98391.94;6941161;28;20298;-79
2023/12/25 05:29:48;;;;;;;1.57;1.50;;;;;;;15.39;37.55;98396.81;6938854;28;20246;-76
2023/12/25 05:33:11;;;;;;;1.57;1.50;;;;;;;15.50;37.28;98391.28;6939182;28;20299;-76
2023/12/25 05:36:33;;;;;;;1.77;1.67;;;;;;;15.56;37.44;98392.19;6937782;28;20207;-76
2023/12/25 05:39:55;;;;;;;2.10;1.83;;;;;;;15.36;37.86;98411.69;6938890;28;20663;-78
2023/12/25 05:43:17;;;;;;;1.70;1.60;;;;;;;15.40;37.61;98414.75;6940168;28;20236;-75
2023/12/25 05:46:38;;;;;;;1.60;1.50;;;;;;;14.86;38.65;98409.91;6941613;28;20693;-76
2023/12/25 05:50:01;;;;;;;1.33;1.23;;;;;;;15.24;38.05;98405.47;6941472;28;20231;-76
2023/12/25 05:53:24;;;;;;;1.60;1.50;;;;;;;15.11;38.44;98405.75;6941046;28;20227;-75
2023/12/25 05:56:46;;;;;;;1.50;1.40;;;;;;;15.17;38.45;98390.38;6940873;28;20220;-76
2023/12/25 06:00:09;;;;;;;1.73;1.40;;;;;;;15.34;38.37;98394.78;6939972;28;20297;-76
2023/12/25 06:03:30;;;;;;;1.27;1.27;;;;;;;15.13;38.70;98402.81;6941159;28;20698;-76
2023/12/25 06:06:53;;;;;;;1.63;1.40;;;;;;;14.86;39.43;98412.63;6941476;28;20297;-76
2023/12/25 06:10:15;;;;;;;1.47;1.37;;;;;;;14.52;40.29;98424.38;6941146;28;20230;-76
2023/12/25 06:13:36;;;;;;;1.60;1.50;;;;;;;14.99;39.48;98432.13;6940407;28;20223;-75
2023/12/25 06:16:58;;;;;;;2.30;1.60;;;;;;;14.98;39.23;98441.34;6940888;28;20663;-76
2023/12/25 06:20:20;;;;;;;1.70;1.60;;;;;;;15.42;38.60;98437.03;6939597;28;20301;-76
2023/12/25 06:23:43;;;;;;;1.30;1.30;;;;;;;15.43;38.35;98430.53;6940555;28;20223;-76
2023/12/25 06:27:05;;;;;;;1.67;1.57;;;;;;;15.44;38.37;98440.34;6967600;28;20264;-76
2023/12/25 06:30:26;;;;;;;1.20;1.20;;;;;;;15.53;38.35;98430.72;6967702;28;20964;-76
2023/12/25 06:33:48;;;;;;;1.30;1.30;;;;;;;15.06;39.01;98432.00;6965746;28;20306;-77
2023/12/25 06:37:09;;;;;;;2.43;1.40;;;;;;;15.28;38.76;98438.41;6967186;28;20286;-76
2023/12/25 06:40:32;;;;;;;1.30;1.30;;;;;;;15.08;38.86;98441.56;6966693;28;20672;-78
2023/12/25 06:43:54;;;;;;;1.47;1.40;;;;;;;15.30;38.71;98430.81;6967840;28;20324;-77
2023/12/25 06:47:15;;;;;;;1.70;1.60;;;;;;;15.57;37.92;98434.59;6972083;28;20556;-77
2023/12/25 06:50:38;;;;;;;1.60;1.50;;;;;;;15.13;38.04;98430.78;6972600;28;20284;-77
2023/12/25 06:53:59;;;;;;;1.70;1.60;;;;;;;15.24;38.41;98440.78;6971960;28;20576;-77
2023/12/25 06:57:22;;;;;;;1.70;1.60;;;;;;;15.26;38.68;98446.78;6963552;28;20310;-77
2023/12/25 07:00:43;;;;;;;1.47;1.47;;;;;;;15.69;37.68;98454.38;6945252;28;20733;-78
2023/12/25 07:04:05;;;;;;;1.40;1.40;;;;;;;15.68;37.67;98442.69;6945543;28;20255;-78
2023/12/25 07:07:27;;;;;;;1.60;1.50;;;;;;;15.45;38.05;98452.88;6945504;28;20240;-75
2023/12/25 07:10:48;;;;;;;3.43;1.70;;;;;;;15.25;37.49;98461.44;6947348;28;20220;-75
2023/12/25 07:14:11;;;;;;;2.47;1.93;;;;;;;15.09;38.01;98451.34;6972261;28;20231;-75
2023/12/25 07:17:33;;;;;;;1.60;1.50;;;;;;;14.82;38.19;98469.25;6971796;28;20605;-75
2023/12/25 07:20:54;;;;;;;3.33;1.70;;;;;;;14.95;38.50;98460.00;6972300;28;20576;-77
2023/12/25 07:24:16;;;;;;;1.70;1.60;;;;;;;15.14;37.91;98472.31;6972691;28;20314;-78
2023/12/25 07:27:37;;;;;;;2.43;1.50;;;;;;;14.86;38.24;98480.47;6973109;28;20207;-78
2023/12/25 07:31:01;;;;;;;1.93;1.83;;;;;;;15.11;37.95;98489.94;6971009;28;20233;-79
2023/12/25 07:34:23;;;;;;;2.13;1.80;;;;;;;15.00;37.90;98476.41;6964201;28;20336;-76
2023/12/25 07:37:44;;;;;;;3.37;2.50;;;;;;;14.55;38.67;98475.44;6972348;28;20602;-75
2023/12/25 07:41:08;;;;;;;3.63;2.40;;;;;;;15.02;38.13;98485.13;6971450;28;20348;-77
2023/12/25 07:44:29;;;;;;;2.10;2.00;;;;;;;15.20;37.35;98491.22;6971709;28;20275;-76
2023/12/25 07:47:52;;;;;;;1.80;1.70;;;;;;;15.25;37.57;98499.47;6972029;28;20670;-77
2023/12/25 07:51:14;;;;;;;2.07;1.73;;;;;;;15.34;37.26;98502.66;6967721;28;20277;-75
2023/12/25 07:54:35;;;;;;;1.93;1.80;;;;;;;15.42;37.12;98504.97;6970774;28;20695;-78
2023/12/25 07:57:56;;;;;;;1.60;1.50;;;;;;;15.25;36.84;98515.75;6970782;28;20244;-75
2023/12/25 08:01:18;;;;;;;1.63;1.53;;;;;;;15.06;37.63;98513.44;6971375;28;20671;-75
2023/12/25 08:04:41;;;;;;;1.77;1.67;;;;;;;15.35;37.04;98512.44;6972064;28;20593;-76
2023/12/25 08:08:03;;;;;;;1.80;1.70;;;;;;;15.06;37.48;98527.88;6971416;28;20269;-75
2023/12/25 08:11:25;;;;;;;1.80;1.70;;;;;;;15.14;37.40;98542.94;6941906;28;20236;-75
2023/12/25 08:14:47;;;;;;;1.60;1.50;;;;;;;14.85;37.62;98538.50;6944317;28;20680;-75
2023/12/25 08:18:08;;;;;;;1.87;1.77;;;;;;;14.92;37.85;98539.22;6944160;28;20205;-76
2023/12/25 08:21:31;;;;;;;2.37;1.73;;;;;;;15.55;36.58;98534.56;6943396;28;20311;-77
2023/12/25 08:24:53;;;;;;;1.70;1.60;;;;;;;15.09;37.30;98548.25;6957893;28;20261;-75
2023/12/25 08:28:14;;;;;;;1.80;1.70;;;;;;;15.39;37.40;98557.09;6969962;28;20619;-76
2023/12/25 08:31:39;;;;;;;1.60;1.50;;;;;;;15.30;36.70;98540.31;6969680;28;20361;-77
2023/12/25 08:35:00;;;;;;;2.13;1.63;;;;;;;15.49;37.09;98555.38;6943718;28;20206;-75
2023/12/25 08:38:23;;;;;;;1.70;1.60;;;;;;;15.51;37.18;98561.38;6954688;28;20207;-76
2023/12/25 08:41:45;;;;;;;1.60;1.50;;;;;;;15.84;36.61;98568.81;6951700;28;20632;-76
2023/12/25 08:45:07;;;;;;;1.90;1.80;;;;;;;16.01;36.11;98570.50;6969546;28;20324;-78
2023/12/25 08:48:29;;;;;;;1.47;1.40;;;;;;;15.85;36.53;98571.28;6969005;28;20202;-76
2023/12/25 08:51:50;;;;;;;1.70;1.60;;;;;;;15.23;37.31;98580.34;6968947;28;20230;-77
2023/12/25 08:55:13;;;;;;;1.50;1.40;;;;;;;15.65;37.30;98576.34;6970070;28;20218;-76
2023/12/25 08:58:35;;;;;;;1.60;1.50;;;;;;;15.07;38.18;98583.81;6969175;28;20251;-78
2023/12/25 09:01:56;;;;;;;1.50;1.50;;;;;;;14.85;38.64;98576.50;6968698;28;20223;-74
2023/12/25 09:05:18;;;;;;;1.90;1.40;;;;;;;15.83;37.13;98583.47;6966628;28;20293;-75
2023/12/25 09:08:39;;;;;;;1.70;1.60;;;;;;;15.50;37.71;98576.03;6969518;28;20219;-77
2023/12/25 09:12:02;;;;;;;1.60;1.50;;;;;;;15.69;37.67;98587.56;6969502;28;20235;-78
2023/12/25 09:15:24;;;;;;;1.70;1.60;;;;;;;15.64;37.58;98587.47;6970063;28;20293;-78
2023/12/25 09:18:46;;;;;;;1.50;1.40;;;;;;;15.98;37.35;98592.72;6954248;28;20208;-75
2023/12/25 09:22:08;;;;;;;2.10;1.50;;;;;;;15.96;38.00;98594.03;6968090;28;20920;-77
2023/12/25 09:25:29;;;;;;;2.53;1.60;;;;;;;16.02;37.44;98590.34;6967647;28;20287;-76
2023/12/25 09:28:52;;;;;;;1.70;1.60;;;;;;;15.81;38.31;98604.66;6969129;28;20303;-76
2023/12/25 09:32:14;;;;;;;7.17;3.67;;;;;;;15.64;38.74;98595.63;6967750;28;20322;-78
2023/12/25 09:35:35;;;;;;;1.63;1.53;;;;;;;15.89;38.45;98604.25;6960719;28;20320;-76
2023/12/25 09:38:57;;;;;;;1.53;1.43;;;;;;;15.89;37.75;98613.25;6968115;28;20220;-75
2023/12/25 09:42:18;;;;;;;1.97;1.50;;;;;;;16.20;37.80;98617.31;6968573;28;20306;-77
2023/12/25 09:45:42;;;;;;;1.67;1.57;;;;;;;16.37;37.20;98629.88;6963368;28;20204;-76
2023/12/25 09:49:03;;;;;;;1.43;1.33;;;;;;;16.37;37.41;98621.72;6954326;28;20790;-76
2023/12/25 09:52:25;;;;;;;1.70;1.60;;;;;;;15.88;38.62;98608.88;6959425;28;20293;-75
2023/12/25 09:55:47;;;;;;;1.70;1.60;;;;;;;16.15;38.32;98603.66;6965518;28;20827;-78
2023/12/25 09:59:08;;;;;;;1.60;1.50;;;;;;;15.50;40.00;98613.25;6966078;28;20208;-79
2023/12/25 10:02:34;;;;;;;2.00;1.50;;;;;;;15.32;40.48;98594.38;6966427;28;20276;-77
2023/12/25 10:05:55;;;;;;;1.97;1.60;;;;;;;15.52;40.48;98594.84;6964049;28;20213;-78
2023/12/25 10:09:16;;;;;;;1.90;1.80;;;;;;;15.65;40.89;98595.38;6966836;28;20298;-84
2023/12/25 10:12:43;;;;;;;1.70;1.60;;;;;;;16.08;39.75;98579.31;6968904;28;20236;-79
2023/12/25 10:16:05;;;;;;;1.60;1.47;;;;;;;15.92;40.65;98596.41;6967741;28;20250;-76
2023/12/25 10:19:27;;;;;;;1.63;1.53;;;;;;;16.08;39.95;98576.59;6967053;28;20302;-78
2023/12/25 10:22:49;;;;;;;1.47;1.43;;;;;;;15.55;41.07;98568.00;6966180;28;20310;-78
2023/12/25 10:26:10;;;;;;;1.37;1.37;;;;;;;15.66;41.60;98563.56;6969434;28;20711;-78
2023/12/25 10:29:36;;;;;;;1.93;1.73;;;;;;;16.38;40.32;98555.38;6948141;28;20235;-78
2023/12/25 10:33:10;;;;;;;1.90;1.77;;;;;;;16.77;39.74;98553.50;6941038;28;20654;-78
2023/12/25 10:36:33;;;;;;;1.30;1.27;;;;;;;16.35;40.71;98550.38;6940977;28;20254;-76
2023/12/25 10:39:54;;;;;;;2.10;1.90;;;;;;;16.56;40.50;98548.84;6950656;28;20287;-74
2023/12/25 10:43:16;;;;;;;2.30;1.70;;;;;;;16.62;41.30;98547.84;6967542;28;20258;-79
2023/12/25 10:46:37;;;;;;;1.70;1.60;;;;;;;16.97;41.00;98545.63;6967310;28;20290;-79
2023/12/25 10:50:00;;;;;;;3.80;3.20;;;;;;;16.69;41.41;98541.16;6947081;28;20218;-75
2023/12/25 10:53:23;;;;;;;1.80;1.70;;;;;;;16.72;41.62;98553.44;6939990;28;20318;-76
2023/12/25 10:56:44;;;;;;;1.70;1.60;;;;;;;16.67;41.48;98535.13;6940320;28;20361;-76
2023/12/25 11:00:10;;;;;;;2.80;2.10;;;;;;;16.88;41.77;98553.38;6964519;28;20204;-81
2023/12/25 11:03:32;;;;;;;2.40;2.20;;;;;;;16.48;42.51;98560.16;6966386;28;20217;-79
2023/12/25 11:06:55;;;;;;;1.40;1.30;;;;;;;16.59;41.65;98538.28;6968141;28;20209;-76
2023/12/25 11:10:18;;;;;;;3.27;1.63;;;;;;;16.73;42.02;98555.91;6967230;28;20203;-79
2023/12/25 11:13:40;;;;;;;3.00;2.00;;;;;;;16.28;42.95;98535.31;6968431;28;20263;-78
2023/12/25 11:17:03;;;;;;;1.80;1.70;;;;;;;16.85;43.10;98545.75;6967787;28;20346;-78
2023/12/25 11:20:25;;;;;;;2.07;1.93;;;;;;;16.81;42.68;98528.25;6965578;28;20294;-74
2023/12/25 11:23:48;;;;;;;1.20;1.20;;;;;;;17.16;41.39;98526.00;6967669;28;20224;-76
2023/12/25 11:27:16;;;;;;;1.90;1.30;;;;;;;17.34;42.21;98543.94;6966726;28;20211;-76
2023/12/25 11:30:37;;;;;;;1.50;1.37;;;;;;;16.47;42.93;98537.56;6966606;28;20242;-77
2023/12/25 11:34:19;;;;;;;1.83;1.73;;;;;;;16.37;43.92;98552.84;6969991;28;20239;-78
2023/12/25 11:37:40;;;;;;;1.63;1.53;;;;;;;16.47;43.87;98547.63;6966408;28;20204;-79
2023/12/25 11:41:03;;;;;;;2.03;1.50;;;;;;;16.80;43.47;98542.94;6970577;28;20295;-80
2023/12/25 11:44:33;;;;;;;1.47;1.40;;;;;;;15.91;46.12;98531.41;6969686;28;20203;-76
2023/12/25 11:47:55;;;;;;;5.37;2.20;;;;;;;16.52;45.04;98551.22;6971725;28;20287;-77
2023/12/25 11:51:23;;;;;;;1.27;1.27;;;;;;;16.12;46.46;98545.13;6970726;28;20310;-80
2023/12/25 11:54:45;;;;;;;1.90;1.77;;;;;;;16.17;45.09;98547.91;6970161;28;20245;-79
2023/12/25 11:58:06;;;;;;;1.37;1.33;;;;;;;15.90;45.68;98544.19;6970870;28;20635;-76
2023/12/25 12:01:29;;;;;;;1.20;1.20;;;;;;;16.09;45.54;98540.16;6970864;28;20313;-76
2023/12/25 12:04:50;;;;;;;1.97;1.87;;;;;;;16.08;45.42;98537.69;6971854;28;20340;-75
2023/12/25 12:08:12;;;;;;;1.07;1.07;;;;;;;16.06;45.31;98501.75;6971787;28;20212;-77
2023/12/25 12:11:33;;;;;;;2.90;2.70;;;;;;;16.05;45.95;98541.72;6970874;28;20318;-79
2023/12/25 12:14:56;;;;;;;2.40;2.20;;;;;;;16.28;45.58;98538.03;6970934;28;20265;-76
2023/12/25 12:18:20;;;;;;;1.63;1.53;;;;;;;16.00;45.28;98530.78;6971494;28;20700;-76
2023/12/25 12:21:41;;;;;;;9.77;7.17;;;;;;;16.24;44.82;98515.94;6970739;28;20310;-77
2023/12/25 12:25:13;;;;;;;6.63;5.83;;;;;;;16.31;45.27;98530.19;6971591;28;20719;-76
2023/12/25 12:28:34;;;;;;;2.40;2.10;;;;;;;16.80;44.07;98523.06;6959114;28;20200;-79
2023/12/25 12:31:56;;;;;;;7.70;5.07;;;;;;;16.30;45.20;98538.59;6963515;28;20377;-77
2023/12/25 12:35:19;;;;;;;19.87;8.70;;;;;;;16.47;45.06;98537.56;6947953;28;20215;-78
2023/12/25 12:38:42;;;;;;;11.97;5.23;;;;;;;15.83;46.20;98548.13;6965275;28;20247;-79
2023/12/25 12:42:09;;;;;;;108.83;27.00;;;;;;;15.94;46.50;98548.09;6968130;28;20361;-77
2023/12/25 12:45:31;;;;;;;29.57;10.03;;;;;;;15.93;46.59;98529.28;6969995;28;20231;-76
2023/12/25 12:48:52;;;;;;;5.67;5.17;;;;;;;16.30;46.41;98533.16;6969824;28;20309;-81
2023/12/25 12:52:15;;;;;;;1.90;1.80;;;;;;;16.57;45.18;98523.28;6968127;28;20371;-76
2023/12/25 12:55:36;;;;;;;1.60;1.50;;;;;;;16.42;46.13;98523.88;6967529;28;20359;-77
2023/12/25 12:58:58;;;;;;;1.47;1.23;;;;;;;16.42;45.59;98521.16;6969803;28;20219;-76
2023/12/25 13:02:20;;;;;;;1.57;1.47;;;;;;;15.96;46.09;98483.38;6969163;28;20271;-75
2023/12/25 13:05:41;;;;;;;1.20;1.20;;;;;;;16.26;46.28;98521.13;6965317;28;20202;-76
2023/12/25 13:09:04;;;;;;;1.07;1.07;;;;;;;16.32;46.24;98522.84;6968375;28;20219;-76
2023/12/25 13:12:26;;;;;;;1.07;1.07;;;;;;;15.62;47.97;98519.75;6960971;28;20330;-74
2023/12/25 13:15:48;;;;;;;1.40;1.30;;;;;;;16.03;47.20;98522.13;6948073;28;20209;-75
2023/12/25 13:19:10;;;;;;;1.30;1.20;;;;;;;16.22;46.83;98520.00;6962922;28;20243;-75
2023/12/25 13:22:31;;;;;;;1.40;1.30;;;;;;;16.45;46.49;98511.69;6969468;28;20709;-76
2023/12/25 13:25:54;;;;;;;1.30;1.20;;;;;;;16.19;47.01;98502.25;6968758;28;20286;-75
2023/12/25 13:29:16;;;;;;;1.37;1.30;;;;;;;16.58;46.60;98512.13;6967433;28;20211;-76
2023/12/25 13:32:37;;;;;;;1.67;1.20;;;;;;;16.38;47.45;98520.00;6969344;28;20327;-76
2023/12/25 13:35:59;;;;;;;1.70;1.60;;;;;;;16.59;46.46;98524.69;6967508;28;20215;-75
2023/12/25 13:39:20;;;;;;;1.40;1.40;;;;;;;16.87;46.30;98516.34;6968333;28;20217;-76
2023/12/25 13:42:43;;;;;;;1.40;1.30;;;;;;;17.32;44.77;98508.75;6968616;28;20227;-76
2023/12/25 13:46:05;;;;;;;1.10;1.10;;;;;;;16.98;45.50;98506.44;6965262;28;20678;-76
2023/12/25 13:49:27;;;;;;;1.40;1.40;;;;;;;16.70;46.07;98503.88;6963962;28;20284;-76
2023/12/25 13:52:48;;;;;;;1.30;1.20;;;;;;;16.40;47.08;98512.41;6968278;28;20238;-76
2023/12/25 13:56:10;;;;;;;1.03;1.03;;;;;;;16.58;46.71;98505.88;6967595;28;20238;-78
2023/12/25 13:59:33;;;;;;;1.50;1.40;;;;;;;16.51;47.07;98510.69;6966996;28;20207;-76
2023/12/25 14:02:55;;;;;;;1.20;1.20;;;;;;;16.79;46.16;98500.47;6961737;28;20229;-76
2023/12/25 14:06:17;;;;;;;1.30;1.20;;;;;;;16.62;46.92;98513.28;6967831;28;20727;-76
2023/12/25 14:09:38;;;;;;;2.10;1.37;;;;;;;16.98;45.81;98517.31;6967529;28;20264;-78
2023/12/25 14:13:00;;;;;;;1.37;1.27;;;;;;;16.72;46.44;98486.22;6967822;28;20262;-77
2023/12/25 14:16:23;;;;;;;1.20;1.10;;;;;;;17.14;45.76;98511.81;6968260;28;20258;-76
2023/12/25 14:19:44;;;;;;;1.10;1.10;;;;;;;17.40;45.57;98502.06;6960645;28;20256;-80
2023/12/25 14:23:06;;;;;;;1.30;1.20;;;;;;;16.94;45.96;98516.19;6967058;28;20231;-76
2023/12/25 14:26:28;;;;;;;1.50;1.40;;;;;;;17.10;45.50;98509.84;6968052;28;20209;-76
2023/12/25 14:29:50;;;;;;;1.20;1.10;;;;;;;16.61;47.04;98527.13;6967207;28;20265;-77
2023/12/25 14:33:15;;;;;;;1.20;1.20;;;;;;;16.83;46.72;98519.84;6968200;28;20235;-76
2023/12/25 14:36:37;;;;;;;1.60;1.50;;;;;;;17.21;45.96;98523.34;6953621;28;20206;-76
2023/12/25 14:39:58;;;;;;;1.40;1.40;;;;;;;16.97;46.46;98521.94;6967220;28;20300;-76
2023/12/25 14:43:20;;;;;;;1.53;1.20;;;;;;;16.95;46.20;98520.53;6944292;28;20632;-76
2023/12/25 14:46:41;;;;;;;1.53;1.43;;;;;;;16.73;47.02;98511.53;6968083;28;20205;-77
2023/12/25 14:50:07;;;;;;;1.33;1.27;;;;;;;16.47;47.56;98520.41;6967764;28;20208;-76
2023/12/25 14:53:28;;;;;;;1.20;1.10;;;;;;;16.86;46.79;98522.06;6967883;28;20228;-76
2023/12/25 14:56:50;;;;;;;1.53;1.43;;;;;;;16.85;46.58;98518.50;6966745;28;20221;-77
2023/12/25 15:00:13;;;;;;;1.60;1.50;;;;;;;17.19;46.08;98538.28;6963587;28;20211;-76
2023/12/25 15:03:34;;;;;;;1.43;1.40;;;;;;;17.03;46.35;98537.28;6966921;28;20354;-77
2023/12/25 15:06:57;;;;;;;1.40;1.30;;;;;;;16.91;46.43;98535.72;6967052;28;20581;-78
2023/12/25 15:10:19;;;;;;;1.60;1.53;;;;;;;17.00;46.43;98534.22;6972117;28;20294;-76
2023/12/25 15:13:41;;;;;;;1.23;1.17;;;;;;;16.84;46.77;98537.81;6972697;28;20640;-76
2023/12/25 15:17:03;;;;;;;1.80;1.63;;;;;;;16.84;47.07;98532.38;6971817;28;20266;-76
2023/12/25 15:20:24;;;;;;;1.67;1.57;;;;;;;16.58;46.95;98544.78;6971315;28;20212;-76
2023/12/25 15:23:47;;;;;;;1.40;1.40;;;;;;;16.72;47.07;98537.09;6972478;28;20857;-76
2023/12/25 15:27:09;;;;;;;1.40;1.40;;;;;;;16.86;46.38;98546.56;6958297;28;20213;-76
2023/12/25 15:30:30;;;;;;;1.93;1.70;;;;;;;16.74;46.48;98543.94;6964579;28;20206;-77
2023/12/25 15:33:52;;;;;;;1.70;1.60;;;;;;;16.80;46.53;98553.84;6971915;28;20231;-75
2023/12/25 15:37:15;;;;;;;1.60;1.50;;;;;;;16.88;46.52;98541.69;6965097;28;20211;-78
2023/12/25 15:40:38;;;;;;;1.40;1.27;;;;;;;16.55;46.99;98550.75;6943418;28;20709;-74
2023/12/25 15:43:59;;;;;;;1.50;1.40;;;;;;;16.47;47.46;98550.34;6970217;28;20227;-76
2023/12/25 15:47:21;;;;;;;1.73;1.60;;;;;;;16.72;46.64;98548.81;6971558;28;20663;-76
2023/12/25 15:50:42;;;;;;;2.97;2.30;;;;;;;16.23;47.96;98548.84;6969096;28;20209;-76
2023/12/25 15:54:04;;;;;;;3.10;2.80;;;;;;;16.05;48.26;98554.50;6969783;28;20265;-76